Time;durP1;ratioP1;P1;durP2;ratioP2;P2;SDS_P1;SDS_P2;PMS_P1;PMS_P2;Temp;Humidity;BMP_temperature;BMP_pressure;BME280_temperature;BME280_humidity;BME280_pressure;Samples;Min_cycle;Max_cycle;Signal;HPM_P1;HPM_P2
2021/11/13 00:00:35;;;;;;;52.47;28.08;;;4.80;95.90;;;;;;4951658;28;20035;-67
2021/11/13 00:03:00;;;;;;;56.53;28.30;;;4.70;95.90;;;;;;4955062;28;20074;-67
2021/11/13 00:05:26;;;;;;;56.13;26.23;;;4.70;95.90;;;;;;4954539;28;20334;-67
2021/11/13 00:07:52;;;;;;;47.25;26.48;;;4.70;95.90;;;;;;4950248;28;20365;-67
2021/11/13 00:10:25;;;;;;;49.78;28.38;;;4.70;95.80;;;;;;4953610;28;20507;-67
2021/11/13 00:12:51;;;;;;;52.83;26.75;;;4.70;95.90;;;;;;4953456;28;20042;-67
2021/11/13 00:15:20;;;;;;;46.67;26.00;;;4.70;95.90;;;;;;4946630;28;20039;-67
2021/11/13 00:17:46;;;;;;;54.65;27.88;;;4.70;96.00;;;;;;4953930;28;20037;-67
2021/11/13 00:20:12;;;;;;;47.20;25.30;;;4.70;96.00;;;;;;4957246;28;20035;-67
2021/11/13 00:22:37;;;;;;;50.60;26.98;;;4.70;96.00;;;;;;4954028;28;20441;-67
2021/11/13 00:25:04;;;;;;;47.25;25.25;;;4.70;95.90;;;;;;4956343;28;20479;-66
2021/11/13 00:27:30;;;;;;;49.60;26.25;;;4.70;95.80;;;;;;4937264;28;20031;-67
2021/11/13 00:29:55;;;;;;;49.90;27.33;;;4.80;95.80;;;;;;4955479;28;20035;-67
2021/11/13 00:32:21;;;;;;;50.30;27.70;;;4.70;95.80;;;;;;4954507;28;20045;-67
2021/11/13 00:34:46;;;;;;;52.22;27.55;;;4.80;95.70;;;;;;4957613;28;20038;-67
2021/11/13 00:37:12;;;;;;;47.72;26.42;;;4.80;95.70;;;;;;4954588;28;20030;-67
2021/11/13 00:39:38;;;;;;;50.60;27.58;;;4.80;95.50;;;;;;4953169;28;20027;-67
2021/11/13 00:42:03;;;;;;;49.35;26.42;;;4.80;95.50;;;;;;4964184;28;20050;-65
2021/11/13 00:44:29;;;;;;;47.83;26.25;;;4.80;95.40;;;;;;4957274;28;20054;-65
2021/11/13 00:46:55;;;;;;;45.17;26.00;;;4.90;95.30;;;;;;4955835;28;20062;-67
2021/11/13 00:49:21;;;;;;;49.15;25.60;;;4.90;95.10;;;;;;4960664;28;20038;-67
2021/11/13 00:51:46;;;;;;;42.15;24.65;;;4.90;95.10;;;;;;4953795;28;20299;-67
2021/11/13 00:54:12;;;;;;;42.67;23.67;;;4.90;95.10;;;;;;4955288;28;20035;-65
2021/11/13 00:56:38;;;;;;;45.50;24.77;;;4.90;95.00;;;;;;4953874;28;20026;-65
2021/11/13 00:59:04;;;;;;;41.20;24.33;;;5.00;95.10;;;;;;4960235;28;20030;-65
2021/11/13 01:01:29;;;;;;;44.17;24.55;;;4.90;95.00;;;;;;4958538;28;20397;-67
2021/11/13 01:03:55;;;;;;;40.83;23.98;;;4.90;94.80;;;;;;4959010;28;20031;-67
2021/11/13 01:06:21;;;;;;;44.85;24.50;;;4.90;94.70;;;;;;4963537;28;20050;-67
2021/11/13 01:08:48;;;;;;;42.08;24.33;;;4.90;94.60;;;;;;4951338;28;20031;-67
2021/11/13 01:11:15;;;;;;;41.13;23.73;;;4.90;94.50;;;;;;4961208;28;20011;-67
2021/11/13 01:13:40;;;;;;;41.03;23.42;;;4.90;94.50;;;;;;4956103;28;20031;-67
2021/11/13 01:16:06;;;;;;;36.60;23.02;;;4.90;94.50;;;;;;4959581;28;20085;-67
2021/11/13 01:18:31;;;;;;;39.95;23.60;;;5.00;94.70;;;;;;4957394;28;20030;-67
2021/11/13 01:20:57;;;;;;;39.10;22.45;;;4.90;94.50;;;;;;4952771;28;20038;-67
2021/11/13 01:23:24;;;;;;;37.72;22.35;;;5.00;94.30;;;;;;4952806;28;20088;-67
2021/11/13 01:25:49;;;;;;;36.85;23.00;;;5.00;94.30;;;;;;4957313;28;20023;-67
2021/11/13 01:28:15;;;;;;;36.72;22.60;;;5.00;94.20;;;;;;4955566;28;20403;-67
2021/11/13 01:30:40;;;;;;;35.25;22.08;;;5.00;93.90;;;;;;4963151;28;20457;-67
2021/11/13 01:33:06;;;;;;;37.75;22.88;;;5.10;93.90;;;;;;4941771;28;20596;-65
2021/11/13 01:35:31;;;;;;;33.83;21.13;;;5.10;94.00;;;;;;4956223;28;20022;-65
2021/11/13 01:37:57;;;;;;;37.33;21.65;;;5.10;93.90;;;;;;4953552;28;20026;-65
2021/11/13 01:40:25;;;;;;;33.58;20.95;;;5.10;93.80;;;;;;4951565;28;20114;-65
2021/11/13 01:42:54;;;;;;;34.20;20.90;;;5.10;93.70;;;;;;4959474;28;20030;-65
2021/11/13 01:45:19;;;;;;;31.75;20.08;;;5.20;93.50;;;;;;4954715;28;20042;-65
2021/11/13 01:47:46;;;;;;;34.17;20.85;;;5.20;93.40;;;;;;4954781;28;20072;-65
2021/11/13 01:50:18;;;;;;;33.03;20.35;;;5.30;93.10;;;;;;4952024;28;20023;-65
2021/11/13 01:52:45;;;;;;;32.80;20.65;;;5.30;93.20;;;;;;4956945;28;20047;-65
2021/11/13 01:55:11;;;;;;;31.15;20.05;;;5.30;93.00;;;;;;4959468;28;20446;-65
2021/11/13 01:57:44;;;;;;;37.65;20.25;;;5.30;93.00;;;;;;4952241;28;20130;-65
2021/11/13 02:00:23;;;;;;;31.88;20.65;;;5.30;92.80;;;;;;4955033;28;20028;-65
2021/11/13 02:02:48;;;;;;;34.35;18.88;;;5.30;92.70;;;;;;4956699;28;20030;-65
2021/11/13 02:05:14;;;;;;;33.42;21.23;;;5.30;92.70;;;;;;4963343;28;20062;-65
2021/11/13 02:07:40;;;;;;;30.63;18.65;;;5.30;92.60;;;;;;4948240;28;20426;-67
2021/11/13 02:10:07;;;;;;;31.42;20.10;;;5.30;92.80;;;;;;4959247;28;20038;-67
2021/11/13 02:12:32;;;;;;;33.00;20.55;;;5.30;92.70;;;;;;4952818;28;20042;-65
2021/11/13 02:14:58;;;;;;;32.78;18.83;;;5.30;92.80;;;;;;4959483;28;20030;-66
2021/11/13 02:17:24;;;;;;;27.95;18.02;;;5.40;92.40;;;;;;4955609;28;20114;-66
2021/11/13 02:19:52;;;;;;;30.05;18.83;;;5.50;92.40;;;;;;4949087;28;20028;-66
2021/11/13 02:22:18;;;;;;;30.40;19.23;;;5.40;92.40;;;;;;4953161;28;20479;-66
2021/11/13 02:24:44;;;;;;;29.50;18.80;;;5.40;92.40;;;;;;4954769;28;20038;-66
2021/11/13 02:27:10;;;;;;;29.92;19.13;;;5.50;92.60;;;;;;4950405;28;20082;-66
2021/11/13 02:29:37;;;;;;;33.85;18.42;;;5.50;92.50;;;;;;4954076;28;22353;-66
2021/11/13 02:32:03;;;;;;;32.80;19.13;;;5.40;92.50;;;;;;4956923;28;20430;-66
2021/11/13 02:34:28;;;;;;;30.75;17.83;;;5.40;92.40;;;;;;4960593;28;20112;-66
2021/11/13 02:36:54;;;;;;;32.40;18.20;;;5.40;92.30;;;;;;4950765;28;20023;-66
2021/11/13 02:39:20;;;;;;;28.33;17.85;;;5.40;92.60;;;;;;4950094;28;20062;-66
2021/11/13 02:41:47;;;;;;;28.90;17.95;;;5.40;92.80;;;;;;4936081;28;20031;-66
2021/11/13 02:44:15;;;;;;;29.30;18.65;;;5.40;92.80;;;;;;4957314;28;20399;-65
2021/11/13 02:46:42;;;;;;;29.42;18.58;;;5.50;92.50;;;;;;4953623;28;20178;-66
2021/11/13 02:49:08;;;;;;;28.80;17.45;;;5.50;92.50;;;;;;4950555;28;20027;-66
2021/11/13 02:51:34;;;;;;;29.00;18.27;;;5.50;92.20;;;;;;4953755;28;20088;-66
2021/11/13 02:54:00;;;;;;;28.73;17.05;;;5.50;92.60;;;;;;4953029;28;20026;-66
2021/11/13 02:56:25;;;;;;;28.15;17.33;;;5.60;92.60;;;;;;4967463;28;20026;-66
2021/11/13 02:58:51;;;;;;;28.92;16.73;;;5.60;92.60;;;;;;4948930;28;20110;-66
2021/11/13 03:01:22;;;;;;;29.90;18.92;;;5.60;92.70;;;;;;4951428;28;20023;-66
2021/11/13 03:03:54;;;;;;;27.95;17.35;;;5.60;92.90;;;;;;4956030;28;20375;-66
2021/11/13 03:06:20;;;;;;;28.60;17.00;;;5.60;92.90;;;;;;4962385;28;20487;-66
2021/11/13 03:08:49;;;;;;;26.90;17.02;;;5.60;92.80;;;;;;4944560;28;20093;-65
2021/11/13 03:11:16;;;;;;;29.08;18.15;;;5.60;92.90;;;;;;4958277;28;20109;-66
2021/11/13 03:13:45;;;;;;;28.58;17.75;;;5.60;92.70;;;;;;4953758;28;20038;-65
2021/11/13 03:16:12;;;;;;;29.23;17.55;;;5.70;92.70;;;;;;4952331;28;20038;-66
2021/11/13 03:18:37;;;;;;;31.17;17.60;;;5.70;92.70;;;;;;4955626;28;20018;-66
2021/11/13 03:21:07;;;;;;;27.20;17.30;;;5.70;92.80;;;;;;4970768;28;20026;-66
2021/11/13 03:23:39;;;;;;;28.92;17.73;;;5.80;92.80;;;;;;4950479;28;20094;-66
2021/11/13 03:26:10;;;;;;;28.92;18.17;;;5.80;92.80;;;;;;4951357;28;20675;-66
2021/11/13 03:28:39;;;;;;;30.30;17.52;;;5.90;92.90;;;;;;4957290;28;20039;-66
2021/11/13 03:31:06;;;;;;;30.55;17.70;;;5.90;92.90;;;;;;4960127;28;20043;-66
2021/11/13 03:33:35;;;;;;;32.10;16.80;;;5.90;92.80;;;;;;4960989;28;20031;-66
2021/11/13 03:36:01;;;;;;;27.85;17.38;;;6.00;92.80;;;;;;4958443;28;20038;-66
2021/11/13 03:38:28;;;;;;;28.25;16.90;;;6.00;92.80;;;;;;4955722;28;20031;-66
2021/11/13 03:40:55;;;;;;;27.15;17.38;;;6.00;92.90;;;;;;4938238;28;20038;-66
2021/11/13 03:43:21;;;;;;;29.50;16.67;;;6.10;92.80;;;;;;4955962;28;20387;-66
2021/11/13 03:45:50;;;;;;;27.38;17.42;;;6.00;93.00;;;;;;4958491;28;20126;-66
2021/11/13 03:48:17;;;;;;;26.92;16.88;;;6.00;93.20;;;;;;4958645;28;20022;-66
2021/11/13 03:50:43;;;;;;;29.02;17.88;;;6.00;93.20;;;;;;4945183;28;20415;-66
2021/11/13 03:53:09;;;;;;;27.65;17.05;;;6.00;93.10;;;;;;4961736;28;20503;-66
2021/11/13 03:55:35;;;;;;;27.50;17.45;;;6.00;93.30;;;;;;4953968;28;20382;-66
2021/11/13 03:58:01;;;;;;;29.70;17.83;;;6.00;93.50;;;;;;4937423;28;20031;-66
2021/11/13 04:00:28;;;;;;;29.38;18.17;;;5.90;93.60;;;;;;4953281;28;20074;-66
2021/11/13 04:02:54;;;;;;;28.63;19.23;;;5.90;93.50;;;;;;4947456;28;20043;-66
2021/11/13 04:05:20;;;;;;;30.42;17.75;;;5.90;93.40;;;;;;4977196;23;20046;-78
2021/11/13 04:07:47;;;;;;;29.67;18.17;;;5.90;93.00;;;;;;4985081;28;20061;-78
2021/11/13 04:10:14;;;;;;;28.25;17.67;;;5.90;93.20;;;;;;4984444;28;20078;-78
2021/11/13 04:12:40;;;;;;;30.15;18.67;;;5.80;93.20;;;;;;4993525;28;20018;-78
2021/11/13 04:15:06;;;;;;;31.52;17.80;;;5.80;93.50;;;;;;4990553;28;20129;-80
2021/11/13 04:17:32;;;;;;;29.73;19.08;;;5.80;94.20;;;;;;4990207;28;20033;-80
2021/11/13 04:19:57;;;;;;;30.80;20.38;;;5.70;94.60;;;;;;4992907;28;20122;-80
2021/11/13 04:22:23;;;;;;;31.48;19.60;;;5.60;95.00;;;;;;4993439;28;20466;-80
2021/11/13 04:24:49;;;;;;;31.30;20.30;;;5.60;95.50;;;;;;4993168;28;20403;-79
2021/11/13 04:27:15;;;;;;;31.00;20.00;;;5.60;95.70;;;;;;4987549;28;20026;-79
2021/11/13 04:29:42;;;;;;;36.50;20.75;;;5.60;96.00;;;;;;4989759;28;20026;-79
2021/11/13 04:32:08;;;;;;;34.58;21.35;;;5.60;96.30;;;;;;4984444;28;20110;-79
2021/11/13 04:34:45;;;;;;;33.30;20.58;;;5.60;96.50;;;;;;4979930;28;20030;-79
2021/11/13 04:37:18;;;;;;;36.42;22.60;;;5.50;96.70;;;;;;4978241;28;20029;-80
2021/11/13 04:39:47;;;;;;;37.38;21.65;;;5.50;96.90;;;;;;4986780;28;20057;-79
2021/11/13 04:42:14;;;;;;;39.53;21.42;;;5.50;97.00;;;;;;4979811;28;20022;-78
2021/11/13 04:44:40;;;;;;;37.67;22.35;;;5.40;97.00;;;;;;4977947;28;20055;-77
2021/11/13 04:47:06;;;;;;;39.70;23.02;;;5.50;97.20;;;;;;4978647;28;20113;-78
2021/11/13 04:49:31;;;;;;;39.70;21.95;;;5.40;97.30;;;;;;4976440;28;20094;-77
2021/11/13 04:51:58;;;;;;;42.95;23.95;;;5.40;97.30;;;;;;4979620;28;20034;-78
2021/11/13 04:54:24;;;;;;;47.60;24.42;;;5.40;97.40;;;;;;4974093;28;20035;-76
2021/11/13 04:56:50;;;;;;;41.85;24.60;;;5.40;97.60;;;;;;4954981;28;20201;-76
2021/11/13 04:59:16;;;;;;;44.33;24.45;;;5.40;97.70;;;;;;4948997;28;20311;-77
2021/11/13 05:01:42;;;;;;;43.88;25.33;;;5.30;97.90;;;;;;4963660;28;20058;-77
2021/11/13 05:04:07;;;;;;;44.67;25.40;;;5.30;98.00;;;;;;4942319;28;20142;-77
2021/11/13 05:06:33;;;;;;;45.35;24.85;;;5.30;98.10;;;;;;4963469;28;20590;-78
2021/11/13 05:08:58;;;;;;;44.60;25.73;;;5.30;98.20;;;;;;4975195;28;20035;-77
2021/11/13 05:11:24;;;;;;;45.53;25.13;;;5.30;98.20;;;;;;4976346;28;20463;-80
2021/11/13 05:13:51;;;;;;;50.03;25.85;;;5.30;98.30;;;;;;4980304;28;20018;-78
2021/11/13 05:16:16;;;;;;;43.75;25.80;;;5.30;98.30;;;;;;4975554;28;20018;-79
2021/11/13 05:22:05;;;;;;;46.45;24.40;;;5.20;98.50;;;;;;4980076;28;20057;-80
2021/11/13 05:24:31;;;;;;;46.25;25.02;;;5.20;98.60;;;;;;4985270;28;20092;-81
2021/11/13 05:26:56;;;;;;;44.15;24.45;;;5.20;98.60;;;;;;4979811;28;20034;-81
2021/11/13 05:29:22;;;;;;;51.65;25.58;;;5.20;98.60;;;;;;4986657;28;20039;-81
2021/11/13 05:31:47;;;;;;;50.15;26.08;;;5.20;98.60;;;;;;4965161;28;20137;-80
2021/11/13 05:34:13;;;;;;;42.65;24.30;;;5.30;98.70;;;;;;4982903;28;20136;-81
2021/11/13 05:36:40;;;;;;;45.33;25.08;;;5.20;98.70;;;;;;4970801;28;20476;-81
2021/11/13 05:39:06;;;;;;;53.15;27.23;;;5.20;98.70;;;;;;4979952;28;20030;-80
2021/11/13 05:41:31;;;;;;;49.55;26.73;;;5.20;98.70;;;;;;4963791;28;20110;-79
2021/11/13 05:43:57;;;;;;;48.80;26.08;;;5.30;98.70;;;;;;4979755;28;20110;-80
2021/11/13 05:46:22;;;;;;;46.63;25.25;;;5.20;98.70;;;;;;4978058;28;20038;-78
2021/11/13 05:48:48;;;;;;;54.28;26.05;;;5.30;98.70;;;;;;4987038;28;20054;-80
2021/11/13 05:51:13;;;;;;;48.17;24.92;;;5.20;98.70;;;;;;4962070;28;20027;-81
2021/11/13 05:53:39;;;;;;;49.63;25.75;;;5.30;98.80;;;;;;4978395;28;20108;-81
2021/11/13 05:56:05;;;;;;;49.05;25.60;;;5.30;98.70;;;;;;4980112;28;20038;-80
2021/11/13 05:58:30;;;;;;;47.40;26.38;;;5.30;98.80;;;;;;4980656;28;20283;-81
2021/11/13 06:00:56;;;;;;;50.70;25.90;;;5.30;98.80;;;;;;4979750;28;20034;-81
2021/11/13 06:03:21;;;;;;;44.63;24.83;;;5.30;98.80;;;;;;4974505;28;20033;-81
2021/11/13 06:05:47;;;;;;;50.70;25.40;;;5.30;98.80;;;;;;4977186;28;20083;-81
2021/11/13 06:08:12;;;;;;;53.00;26.45;;;5.30;98.80;;;;;;4981311;28;20042;-81
2021/11/13 06:10:39;;;;;;;46.85;25.70;;;5.30;98.80;;;;;;4986320;28;20035;-81
2021/11/13 06:13:05;;;;;;;52.88;25.58;;;5.30;98.80;;;;;;4981400;28;20026;-81
2021/11/13 06:15:30;;;;;;;52.65;25.35;;;5.30;98.90;;;;;;4979236;28;20124;-81
2021/11/13 06:17:57;;;;;;;46.28;25.45;;;5.30;98.90;;;;;;4978356;28;20113;-81
2021/11/13 06:20:23;;;;;;;48.20;25.08;;;5.30;98.90;;;;;;4985516;28;20023;-81
2021/11/13 06:22:49;;;;;;;51.00;24.38;;;5.30;98.80;;;;;;4980664;28;20518;-81
2021/11/13 06:25:14;;;;;;;45.63;24.98;;;5.30;98.90;;;;;;4978399;28;20055;-81
2021/11/13 06:27:41;;;;;;;50.95;26.00;;;5.40;98.90;;;;;;4979551;28;20041;-81
2021/11/13 06:30:09;;;;;;;52.97;26.60;;;5.40;98.90;;;;;;4962325;28;20027;-82
2021/11/13 06:32:34;;;;;;;48.40;25.33;;;5.40;98.80;;;;;;4990448;28;20038;-82
2021/11/13 06:35:00;;;;;;;47.13;25.00;;;5.40;98.90;;;;;;4993251;28;20033;-82
2021/11/13 06:37:27;;;;;;;47.42;24.52;;;5.40;98.90;;;;;;4999911;28;20021;-81
2021/11/13 06:39:53;;;;;;;46.38;24.33;;;5.40;98.90;;;;;;4995558;28;20046;-82
2021/11/13 06:42:18;;;;;;;50.35;25.25;;;5.30;98.90;;;;;;4985023;28;20030;-82
2021/11/13 06:44:44;;;;;;;47.88;25.15;;;5.40;98.90;;;;;;4997230;28;20025;-84
2021/11/13 06:47:09;;;;;;;46.97;25.70;;;5.40;99.00;;;;;;4999317;28;20031;-82
2021/11/13 06:49:35;;;;;;;48.67;26.15;;;5.40;98.90;;;;;;5003097;28;20030;-82
2021/11/13 06:52:01;;;;;;;52.17;24.83;;;5.40;99.00;;;;;;4996758;28;20042;-82
2021/11/13 06:54:26;;;;;;;45.55;23.88;;;5.40;99.00;;;;;;4999420;28;20034;-81
2021/11/13 06:56:53;;;;;;;44.53;24.02;;;5.40;98.90;;;;;;5002000;28;20038;-81
2021/11/13 06:59:20;;;;;;;45.80;25.52;;;5.40;99.00;;;;;;4991088;28;20427;-81
2021/11/13 07:01:46;;;;;;;48.83;25.05;;;5.40;98.90;;;;;;4987817;28;20058;-81
2021/11/13 07:04:11;;;;;;;47.85;24.67;;;5.40;99.00;;;;;;4965968;28;20355;-82
2021/11/13 07:06:37;;;;;;;43.75;24.33;;;5.40;99.00;;;;;;5874600;23;20049;-79
2021/11/13 07:09:03;;;;;;;46.67;23.70;;;5.40;99.00;;;;;;4967761;23;20050;-65
2021/11/13 07:11:28;;;;;;;44.15;22.20;;;5.40;98.90;;;;;;4965969;28;20059;-66
2021/11/13 07:13:54;;;;;;;46.13;24.25;;;5.40;99.00;;;;;;4951432;28;20049;-65
2021/11/13 07:16:19;;;;;;;46.42;24.75;;;5.40;99.00;;;;;;4955801;28;20287;-66
2021/11/13 07:18:45;;;;;;;46.05;23.80;;;5.40;99.00;;;;;;4946779;28;20105;-66
2021/11/13 07:21:10;;;;;;;44.78;24.33;;;5.40;99.00;;;;;;4951168;28;20035;-66
2021/11/13 07:23:36;;;;;;;49.97;24.73;;;5.50;99.10;;;;;;4981590;23;20141;-78
2021/11/13 07:26:04;;;;;;;41.78;22.88;;;5.40;99.00;;;;;;4972591;28;20035;-80
2021/11/13 07:31:22;;;;;;;46.05;23.35;;;5.40;99.00;;;;;;4969958;28;20030;-77
2021/11/13 07:33:50;;;;;;;43.63;22.90;;;5.40;99.00;;;;;;4942554;29;20075;-78
2021/11/13 07:36:16;;;;;;;46.17;24.27;;;5.40;99.10;;;;;;4928162;29;20192;-77
2021/11/13 07:38:42;;;;;;;41.80;22.48;;;5.40;99.10;;;;;;4941907;28;20400;-78
2021/11/13 07:41:10;;;;;;;45.33;23.13;;;5.40;99.10;;;;;;4944036;28;20034;-78
2021/11/13 07:43:36;;;;;;;43.33;22.83;;;5.40;99.00;;;;;;4929210;28;20167;-79
2021/11/13 07:46:01;;;;;;;37.88;22.30;;;5.50;99.10;;;;;;4942664;28;20602;-78
2021/11/13 07:48:27;;;;;;;43.85;22.55;;;5.40;99.00;;;;;;4936983;28;20051;-80
2021/11/13 07:50:53;;;;;;;46.90;22.95;;;5.40;99.00;;;;;;4938086;28;20028;-80
2021/11/13 07:53:18;;;;;;;38.13;22.27;;;5.40;99.00;;;;;;4922449;28;20031;-78
2021/11/13 07:55:44;;;;;;;42.17;22.52;;;5.40;99.00;;;;;;4944181;28;20070;-75
2021/11/13 07:58:15;;;;;;;43.90;21.67;;;5.30;98.90;;;;;;4939004;28;20102;-77
2021/11/13 08:00:41;;;;;;;36.15;22.02;;;5.30;98.80;;;;;;4925049;28;20054;-76
2021/11/13 08:03:06;;;;;;;38.08;22.15;;;5.40;98.90;;;;;;4927423;28;20023;-77
2021/11/13 08:05:32;;;;;;;35.25;21.13;;;5.40;98.90;;;;;;4939270;28;20179;-78
2021/11/13 08:07:57;;;;;;;40.72;21.83;;;5.40;98.90;;;;;;4943581;28;20035;-78
2021/11/13 08:10:23;;;;;;;41.42;22.42;;;5.40;98.90;;;;;;4941420;28;20516;-79
2021/11/13 08:12:48;;;;;;;38.92;22.20;;;5.40;98.80;;;;;;4945635;28;20047;-78
2021/11/13 08:15:16;;;;;;;38.63;21.33;;;5.40;98.90;;;;;;4951248;28;20042;-78
2021/11/13 08:17:41;;;;;;;44.72;22.60;;;5.40;98.90;;;;;;4945141;28;20046;-79
2021/11/13 08:20:09;;;;;;;43.65;21.20;;;5.50;98.90;;;;;;4931949;28;20031;-76
2021/11/13 08:22:35;;;;;;;43.28;21.65;;;5.40;98.90;;;;;;4941968;28;20484;-78
2021/11/13 08:25:03;;;;;;;44.05;20.83;;;5.50;99.00;;;;;;4925641;28;20050;-78
2021/11/13 08:27:28;;;;;;;38.60;20.77;;;5.50;99.00;;;;;;4944300;28;20480;-78
2021/11/13 08:29:54;;;;;;;43.47;22.23;;;5.60;99.10;;;;;;4940688;28;20023;-75
2021/11/13 08:32:19;;;;;;;40.60;22.42;;;5.60;99.10;;;;;;4936669;28;20031;-77
2021/11/13 08:34:44;;;;;;;34.25;20.25;;;5.60;99.00;;;;;;4950294;28;20095;-78
2021/11/13 08:37:10;;;;;;;41.83;21.30;;;5.60;99.10;;;;;;4936076;28;20043;-78
2021/11/13 08:39:36;;;;;;;43.38;21.35;;;5.60;99.20;;;;;;4948256;28;20030;-77
2021/11/13 08:42:14;;;;;;;39.70;22.83;;;5.60;99.20;;;;;;4945754;28;20023;-78
2021/11/13 08:44:42;;;;;;;36.60;21.17;;;5.60;99.20;;;;;;4939021;28;20041;-78
2021/11/13 08:47:09;;;;;;;40.22;21.73;;;5.60;99.20;;;;;;4931299;28;20034;-77
2021/11/13 08:49:37;;;;;;;40.63;22.35;;;5.60;99.20;;;;;;4944222;28;20027;-78
2021/11/13 08:52:04;;;;;;;40.45;20.73;;;5.70;99.30;;;;;;4930683;28;20393;-77
2021/11/13 08:54:30;;;;;;;36.63;20.92;;;5.70;99.30;;;;;;4937734;28;20078;-78
2021/11/13 08:56:55;;;;;;;39.83;20.75;;;5.70;99.20;;;;;;4948439;28;20497;-79
2021/11/13 08:59:21;;;;;;;42.55;22.30;;;5.80;99.20;;;;;;4946429;28;20082;-78
2021/11/13 09:01:47;;;;;;;34.55;20.15;;;5.80;99.20;;;;;;4952788;28;20487;-78
2021/11/13 09:04:14;;;;;;;36.60;19.80;;;5.80;99.30;;;;;;4961471;28;20034;-77
2021/11/13 09:06:39;;;;;;;42.72;20.23;;;5.80;99.20;;;;;;4961500;28;20471;-78
2021/11/13 09:09:06;;;;;;;35.53;19.25;;;5.90;99.30;;;;;;4939428;29;20034;-77
2021/11/13 09:11:35;;;;;;;37.42;19.90;;;5.90;99.30;;;;;;4953007;29;20024;-78
2021/11/13 09:14:04;;;;;;;37.75;20.42;;;5.80;99.20;;;;;;4948272;28;20046;-78
2021/11/13 09:16:29;;;;;;;35.13;19.77;;;5.80;99.30;;;;;;4959227;28;20158;-79
2021/11/13 09:18:55;;;;;;;35.00;18.80;;;5.90;99.20;;;;;;4949032;28;20541;-79
2021/11/13 09:21:21;;;;;;;32.22;19.70;;;5.90;99.20;;;;;;4953850;28;20392;-78
2021/11/13 09:23:48;;;;;;;31.15;18.75;;;5.90;99.20;;;;;;4952455;28;20110;-78
2021/11/13 09:26:13;;;;;;;31.90;19.63;;;5.90;99.20;;;;;;4956221;28;20027;-76
2021/11/13 09:28:40;;;;;;;31.77;18.83;;;5.90;99.20;;;;;;4958928;28;20133;-78
2021/11/13 09:31:07;;;;;;;33.03;19.27;;;5.90;99.20;;;;;;4958435;28;20039;-78
2021/11/13 09:33:33;;;;;;;35.80;18.73;;;6.00;99.30;;;;;;4963047;28;20057;-78
2021/11/13 09:36:00;;;;;;;36.85;18.42;;;6.00;99.20;;;;;;4952692;28;20034;-78
2021/11/13 09:38:28;;;;;;;30.42;17.83;;;5.90;99.10;;;;;;4956924;28;20075;-76
2021/11/13 09:40:56;;;;;;;32.22;17.00;;;5.90;99.20;;;;;;4944174;28;20020;-78
2021/11/13 09:43:24;;;;;;;36.47;18.50;;;5.90;99.20;;;;;;4951666;28;20182;-78
2021/11/13 09:45:50;;;;;;;27.35;17.05;;;5.80;99.10;;;;;;4956283;28;20023;-78
2021/11/13 09:48:17;;;;;;;30.48;17.48;;;5.90;99.20;;;;;;4950860;28;20503;-78
2021/11/13 09:50:46;;;;;;;31.02;17.23;;;5.90;99.20;;;;;;4949272;28;20110;-77
2021/11/13 09:53:12;;;;;;;30.13;17.00;;;6.00;99.30;;;;;;4935188;28;20091;-78
2021/11/13 09:55:39;;;;;;;26.48;15.73;;;6.00;99.20;;;;;;4927338;28;20032;-77
2021/11/13 09:58:05;;;;;;;25.48;14.75;;;6.00;99.10;;;;;;4945953;28;20035;-78
2021/11/13 10:00:35;;;;;;;25.17;16.10;;;6.10;99.30;;;;;;4942461;28;20027;-78
2021/11/13 10:03:02;;;;;;;25.23;15.50;;;6.00;99.10;;;;;;4953398;28;20023;-78
2021/11/13 10:05:27;;;;;;;24.58;15.20;;;6.10;99.10;;;;;;4948135;28;20493;-78
2021/11/13 10:07:53;;;;;;;23.27;14.02;;;6.20;99.30;;;;;;4951750;28;20035;-78
2021/11/13 10:10:37;;;;;;;22.30;13.98;;;6.20;99.00;;;;;;4938133;28;20040;-78
2021/11/13 10:13:04;;;;;;;25.40;14.15;;;6.40;99.20;;;;;;4948308;28;20327;-78
2021/11/13 10:15:38;;;;;;;22.38;13.18;;;6.30;99.10;;;;;;4942175;28;20031;-77
2021/11/13 10:18:14;;;;;;;21.50;13.63;;;6.30;99.00;;;;;;4944748;28;20027;-78
2021/11/13 10:20:49;;;;;;;21.95;13.45;;;6.30;99.00;;;;;;4930141;28;20071;-77
2021/11/13 10:23:19;;;;;;;21.17;13.10;;;6.40;99.10;;;;;;4947996;28;20070;-78
2021/11/13 10:26:16;;;;;;;22.57;13.67;;;6.40;99.10;;;;;;4942622;28;20529;-77
2021/11/13 10:28:49;;;;;;;25.10;13.20;;;6.50;99.10;;;;;;4923567;28;20094;-77
2021/11/13 10:31:27;;;;;;;25.77;12.35;;;6.40;99.00;;;;;;4950971;28;20471;-76
2021/11/13 10:33:56;;;;;;;21.77;12.85;;;6.50;99.10;;;;;;4928612;28;20126;-76
2021/11/13 10:36:28;;;;;;;22.30;12.55;;;6.50;99.10;;;;;;4940040;28;20402;-75
2021/11/13 10:39:18;;;;;;;19.40;11.57;;;6.50;99.00;;;;;;4943470;28;20377;-77
2021/11/13 10:41:56;;;;;;;21.85;12.40;;;6.50;98.90;;;;;;4942152;28;20027;-76
2021/11/13 10:44:29;;;;;;;19.48;12.07;;;6.60;99.10;;;;;;4942243;28;20023;-76
2021/11/13 10:46:55;;;;;;;17.63;11.30;;;6.60;99.10;;;;;;4946554;28;20163;-76
2021/11/13 10:49:22;;;;;;;17.83;11.65;;;6.70;99.00;;;;;;4942751;28;20054;-76
2021/11/13 10:52:00;;;;;;;19.15;10.95;;;6.60;98.90;;;;;;4947083;28;20627;-76
2021/11/13 10:54:26;;;;;;;17.27;10.88;;;6.60;98.90;;;;;;4947236;28;20031;-76
2021/11/13 10:56:57;;;;;;;16.88;10.75;;;6.70;99.00;;;;;;4944358;28;20041;-76
2021/11/13 10:59:25;;;;;;;15.13;10.05;;;6.70;98.80;;;;;;4933998;29;20042;-76
2021/11/13 11:01:52;;;;;;;15.50;9.93;;;6.70;98.90;;;;;;4965108;28;20187;-76
2021/11/13 11:04:24;;;;;;;14.65;9.60;;;6.80;98.90;;;;;;4951685;28;20038;-76
2021/11/13 11:06:53;;;;;;;15.73;10.07;;;6.80;98.90;;;;;;4953924;28;20313;-76
2021/11/13 11:09:27;;;;;;;15.35;10.10;;;6.80;98.90;;;;;;4952744;28;20027;-76
2021/11/13 11:11:59;;;;;;;16.02;10.23;;;6.80;98.80;;;;;;4946497;28;20510;-78
2021/11/13 11:14:28;;;;;;;16.00;10.18;;;6.80;98.80;;;;;;4937484;28;20046;-77
2021/11/13 11:17:11;;;;;;;18.42;10.00;;;6.70;98.80;;;;;;4927261;28;20408;-77
2021/11/13 11:19:37;;;;;;;15.70;10.23;;;6.80;98.90;;;;;;4944465;28;20047;-76
2021/11/13 11:22:12;;;;;;;16.38;10.07;;;6.90;99.00;;;;;;4945830;28;20019;-77
2021/11/13 11:24:41;;;;;;;16.38;10.20;;;6.90;99.00;;;;;;4933109;28;20404;-77
2021/11/13 11:27:25;;;;;;;15.00;10.00;;;6.80;98.80;;;;;;4954453;28;20160;-77
2021/11/13 11:30:11;;;;;;;15.23;10.40;;;6.90;98.80;;;;;;4948657;28;20033;-77
2021/11/13 11:32:47;;;;;;;15.10;10.07;;;6.90;98.90;;;;;;4924470;28;20035;-76
2021/11/13 11:35:30;;;;;;;14.45;9.57;;;6.80;98.70;;;;;;4931004;29;20212;-77
2021/11/13 11:37:58;;;;;;;13.75;9.68;;;6.90;98.90;;;;;;4924615;29;20038;-74
2021/11/13 11:40:34;;;;;;;16.40;9.23;;;7.00;98.70;;;;;;4944247;28;20042;-77
2021/11/13 11:43:01;;;;;;;16.83;9.63;;;6.90;98.70;;;;;;4950243;28;20031;-77
2021/11/13 11:45:33;;;;;;;19.00;10.23;;;7.00;98.80;;;;;;4923119;28;20087;-77
2021/11/13 11:47:59;;;;;;;14.68;9.65;;;7.00;98.80;;;;;;4944213;28;20224;-77
2021/11/13 11:50:30;;;;;;;17.65;10.07;;;7.00;98.70;;;;;;4923646;29;20416;-77
2021/11/13 11:52:59;;;;;;;15.48;9.57;;;7.10;98.70;;;;;;4930214;29;20393;-77
2021/11/13 11:55:26;;;;;;;14.13;9.38;;;7.10;98.40;;;;;;4950181;28;20668;-77
2021/11/13 11:58:02;;;;;;;17.92;9.88;;;7.20;98.60;;;;;;4940574;28;20028;-77
2021/11/13 12:00:31;;;;;;;14.27;9.13;;;7.20;98.40;;;;;;4945257;28;20031;-77
2021/11/13 12:03:00;;;;;;;14.00;9.13;;;7.30;98.50;;;;;;4922087;28;20074;-76
2021/11/13 12:05:34;;;;;;;14.90;9.32;;;7.20;98.40;;;;;;4930077;29;20389;-76
2021/11/13 12:08:16;;;;;;;13.77;9.30;;;7.30;98.50;;;;;;4941527;28;20023;-77
2021/11/13 12:10:43;;;;;;;15.25;9.38;;;7.30;98.40;;;;;;4945377;28;20046;-77
2021/11/13 12:13:15;;;;;;;15.32;9.45;;;7.30;98.30;;;;;;4922147;29;20027;-77
2021/11/13 12:15:47;;;;;;;14.50;8.82;;;7.30;98.30;;;;;;4947381;28;20066;-76
2021/11/13 12:18:21;;;;;;;18.25;10.40;;;7.20;98.30;;;;;;4951505;28;20027;-77
2021/11/13 12:20:52;;;;;;;15.90;9.73;;;7.30;98.30;;;;;;4931506;28;20028;-76
2021/11/13 12:23:39;;;;;;;15.90;10.15;;;7.30;98.30;;;;;;4946036;28;20039;-77
2021/11/13 12:26:21;;;;;;;18.13;10.13;;;7.30;98.00;;;;;;4926566;28;20352;-77
2021/11/13 12:28:46;;;;;;;17.92;10.80;;;7.20;98.30;;;;;;4941366;28;20043;-77
2021/11/13 12:31:16;;;;;;;18.73;10.70;;;7.20;98.30;;;;;;4929438;29;20492;-76
2021/11/13 12:33:45;;;;;;;17.60;11.43;;;7.20;98.40;;;;;;4931056;29;20382;-76
2021/11/13 12:36:18;;;;;;;19.27;11.73;;;7.40;98.60;;;;;;4959444;28;20093;-76
2021/11/13 12:38:45;;;;;;;18.73;12.25;;;7.40;98.50;;;;;;4945499;28;20042;-76
2021/11/13 12:41:12;;;;;;;20.00;11.25;;;7.50;98.60;;;;;;4951267;28;20031;-77
2021/11/13 12:43:57;;;;;;;18.25;11.82;;;7.40;98.50;;;;;;4948047;28;20031;-77
2021/11/13 12:46:27;;;;;;;18.08;11.57;;;7.50;98.50;;;;;;4942106;28;20272;-77